• Join FlightAware (Why Join?)
  • Login
  • US Flag 
12:35AM EST


 

Airport Tracker/Info


-or-


 

Live Flight TrackerFlight Track Log ✈ N114SP ✈ 09-Jul-2014 ✈ KSTP - KTWM

Flight Track Log - Related Links

Times and Time Zones

All times are in EDT time to prevent confusion due to time zone crossing. See the N114SP flight status page for this flight to view local times or setup timezone preferences in your user account.

Time Position Orientation Groundspeed Altitude Reporting Facility
EDT Latitude Longitude Course Direction KTS MPH feet Rate Location/Type
01:13PM 44.9667 -93.0500 23° Northeast 92 106 1,600  Level Minneapolis TRACON
01:14PM 44.9833 -93.0333 35° Northeast 92 106 2,300 540 Climbing Minneapolis TRACON
01:15PM 44.9939 -93.0139 52° Northeast 94 108 2,700 540 Climbing Minneapolis Center
01:16PM 45.0172 -92.9833 43° Northeast 96 110 3,400 540 Climbing Minneapolis Center
01:17PM 45.0372 -92.9578 42° Northeast 96 110 3,900 480 Climbing Minneapolis Center
01:18PM 45.0614 -92.9397 28° Northeast 98 113 4,400 480 Climbing Minneapolis Center
01:19PM 45.0947 -92.9502 23° Northeast  Level FlightAware Approximate
01:19PM 45.0831 -92.9228 29° Northeast 94 108 4,900  Level Minneapolis Center
01:20PM 45.1044 -92.9069 28° Northeast 89 102 5,000  Climbing Minneapolis Center
01:21PM 45.1339 -92.8858 27° Northeast 113 130 5,000  Level Minneapolis Center
01:22PM 45.1703 -92.8594 27° Northeast 119 137 5,000  Level Minneapolis Center
01:23PM 45.2014 -92.8403 23° Northeast 120 138 5,000  Level Minneapolis Center
01:24PM 45.2322 -92.8219 23° Northeast 120 138 5,000  Level Minneapolis Center
01:25PM 45.2622 -92.8028 24° Northeast 120 138 5,000  Level Minneapolis Center
01:26PM 45.2922 -92.7828 25° Northeast 120 138 5,100  Climbing Minneapolis Center
01:27PM 45.3286 -92.7556 28° Northeast 121 139 5,000 -120 Descending Minneapolis Center
01:28PM 45.3581 -92.7331 28° Northeast 121 139 4,900  Descending Minneapolis Center
01:29PM 45.3875 -92.7086 30° Northeast 121 139 5,000 60 Climbing Minneapolis Center
01:30PM 45.4156 -92.6875 28° Northeast 117 135 5,100  Climbing Minneapolis Center
01:31PM 45.4442 -92.6656 28° Northeast 117 135 5,100 -60 Level Minneapolis Center
01:32PM 45.4744 -92.6469 23° Northeast 118 136 5,000 -60 Descending Minneapolis Center
01:34PM 45.5117 -92.6233 24° Northeast 119 137 5,000  Level Minneapolis Center
01:35PM 45.5428 -92.6039 24° Northeast 120 138 5,000  Level Minneapolis Center
01:36PM 45.5731 -92.5844 24° Northeast 120 138 5,000  Level Minneapolis Center
01:37PM 45.6042 -92.5653 23° Northeast 121 139 5,000  Level Minneapolis Center
01:38PM 45.6356 -92.5453 24° Northeast 121 139 5,000  Level Minneapolis Center
01:39PM 45.6739 -92.5264 19° North 121 139 5,000  Level Minneapolis Center
01:40PM 45.7061 -92.5097 20° North 122 140 5,000  Level Minneapolis Center
01:41PM 45.7375 -92.4928 21° North 121 139 5,000  Level Minneapolis Center
01:42PM 45.7675 -92.4725 25° Northeast 121 139 5,100  Climbing Minneapolis Center
01:43PM 45.7978 -92.4506 27° Northeast 121 139 5,000 -60 Descending Minneapolis Center
01:44PM 45.8294 -92.4325 22° Northeast 121 139 5,000  Level Minneapolis Center
01:45PM 45.8678 -92.4089 23° Northeast 121 139 5,000  Level Minneapolis Center
01:46PM 45.9006 -92.3900 22° Northeast 122 140 5,000  Level Minneapolis Center
01:47PM 45.9317 -92.3681 26° Northeast 122 140 5,000  Level Minneapolis Center
01:48PM 45.9622 -92.3453 27° Northeast 122 140 5,000  Level Minneapolis Center
01:49PM 45.9939 -92.3256 23° Northeast 122 140 5,100  Climbing Minneapolis Center
01:50PM 46.0239 -92.3053 25° Northeast 122 140 5,000 -60 Descending Minneapolis Center
01:51PM 46.0589 -92.2772 29° Northeast 122 140 5,000  Level Minneapolis Center
01:52PM 46.0942 -92.2619 17° North 122 140 5,100  Climbing Minneapolis Center
01:53PM 46.1300 -92.2400 23° Northeast 151 174 5,000 -60 Descending Minneapolis Center
01:54PM 46.1597 -92.2244 20° North 123 142 5,000  Level Minneapolis Center
01:56PM 46.2156 -92.1919 22° Northeast 135 155 5,100  Climbing Minneapolis Center
01:57PM 46.2472 -92.1733 22° Northeast 121 139 5,100  Level Minneapolis Center
01:58PM 46.2778 -92.1575 20° North 121 139 5,100  Level Minneapolis Center
01:59PM 46.3078 -92.1389 23° Northeast 121 139 5,200 -60 Climbing Minneapolis Center
02:00PM 46.3461 -92.1158 23° Northeast 121 139 5,000 -60 Descending Minneapolis Center
02:01PM 46.3781 -92.0972 22° Northeast 121 139 5,100  Climbing Minneapolis Center
02:02PM 46.4103 -92.0778 23° Northeast 121 139 5,100  Level Minneapolis Center
02:03PM 46.4417 -92.0583 23° Northeast 122 140 5,100  Level Minneapolis Center
02:04PM 46.4731 -92.0411 21° North 122 140 5,200 -60 Climbing Minneapolis Center
02:05PM 46.5050 -92.0203 24° Northeast 122 140 5,000 -120 Descending Minneapolis Center
02:06PM 46.5442 -91.9925 26° Northeast 123 142 5,000 60 Level Minneapolis Center
02:08PM 46.5753 -91.9722 24° Northeast 124 143 5,200  Climbing Minneapolis Center
02:09PM 46.6039 -91.9519 26° Northeast 124 143 5,100 -60 Descending Minneapolis Center
02:10PM 46.6344 -91.9344 21° North 123 142 5,100  Level Minneapolis Center
02:11PM 46.6661 -91.9139 24° Northeast 122 140 5,100  Level Minneapolis Center
02:12PM 46.7047 -91.8950 19° North 123 142 5,100 -60 Level Minneapolis Center
02:13PM 46.7356 -91.8747 24° Northeast 123 142 5,000 -60 Descending Minneapolis Center
02:14PM 46.7667 -91.8594 19° North 122 140 5,000  Level Minneapolis Center
02:15PM 46.7997 -91.8417 20° North 122 140 5,000  Level Minneapolis Center
02:17PM 46.8538 -91.8282 10° North  Level FlightAware Approximate
02:24PM 47.0333 -91.7333 19° North  Level FlightAware Approximate
02:25PM 47.0491 -91.7452 326° Northwest  Level Estimated